St Leonards-on-Sea, United Kingdom
Current Conditions -  °F | °C
As of 6:50 PM on Sunday 21 Dec 2014 (Local Time) from EGMD Reporting Station
Broken Clouds Broken Clouds  
Wind Chill: 52°   Ceiling: 1700
Heat Index: 52°   Visibility: 6mi
Dew Point: 50°   Wind: 28mph
Humidity: 94%   Direction: 240°WSW
Pressure: 30.27"   Gusts: NA
Location:  50.85°N, 0.56°E
Report Text: EGMD 211850Z 24024KT 9999 BKN017 11/10 Q1025
Loading
Personal Weather Stations






























Interactive Weather Map New forecast layout! Learn more

10-Day Weather Forecast

Advertisements
Track Severe Weather on mobile